createdAt,value
2022-12-09T00:00:13.125Z,98960.78
2022-12-09T00:01:18.833Z,98955.66
2022-12-09T00:02:21.370Z,98943.72
2022-12-09T00:03:23.956Z,98954.78
2022-12-09T00:04:26.265Z,98955.66
2022-12-09T00:05:28.718Z,98958.19
2022-12-09T00:06:31.311Z,98948.84
2022-12-09T00:07:36.950Z,98952.25
2022-12-09T00:08:39.300Z,98952.22
2022-12-09T00:09:41.257Z,98949.69
2022-12-09T00:10:44.336Z,98951.34
2022-12-09T00:11:45.958Z,98953.94
2022-12-09T00:12:47.918Z,98929.22
2022-12-09T00:13:57.356Z,98949.59
2022-12-09T00:14:59.199Z,98940.22
2022-12-09T00:16:04.842Z,98943.69
2022-12-09T00:17:07.770Z,98952.19
2022-12-09T00:18:10.599Z,98950.47
2022-12-09T00:19:12.972Z,98941.06
2022-12-09T00:20:16.447Z,98911.28
2022-12-09T00:21:26.657Z,98928.31
2022-12-09T00:22:28.871Z,98935.09
2022-12-09T00:23:31.071Z,98917.25
2022-12-09T00:24:34.248Z,98957.28
2022-12-09T00:25:36.334Z,98941.03
2022-12-09T00:26:40.994Z,98937.63
2022-12-09T00:27:42.772Z,98933.41
2022-12-09T00:28:49.491Z,98922.31
2022-12-09T00:29:51.366Z,98918.06
2022-12-09T00:30:53.100Z,98936.78
2022-12-09T00:31:56.763Z,98925.69
2022-12-09T00:32:58.573Z,98941.00
2022-12-09T00:34:03.189Z,98938.47
2022-12-09T00:35:08.103Z,98939.34
2022-12-09T00:36:15.539Z,98930.75
2022-12-09T00:37:17.838Z,98931.53
2022-12-09T00:38:19.728Z,98935.69
2022-12-09T00:39:22.049Z,98945.06
2022-12-09T00:40:23.941Z,98924.63
2022-12-09T00:41:27.501Z,98936.53
2022-12-09T00:42:32.318Z,98922.88
2022-12-09T00:43:34.231Z,98937.41
2022-12-09T00:44:35.862Z,98929.72
2022-12-09T00:45:37.437Z,98934.00
2022-12-09T00:46:39.363Z,98928.06
2022-12-09T00:47:43.874Z,98931.47
2022-12-09T00:48:46.193Z,98916.16
2022-12-09T00:49:47.823Z,98926.34
2022-12-09T00:50:50.068Z,98923.00
2022-12-09T00:51:54.665Z,98908.50
2022-12-09T00:52:57.113Z,98906.78
2022-12-09T00:53:58.950Z,98913.63
2022-12-09T00:55:01.047Z,98917.03
2022-12-09T00:56:03.183Z,98923.03
2022-12-09T00:57:06.462Z,98921.34
2022-12-09T00:58:08.699Z,98927.31
2022-12-09T00:59:10.789Z,98915.41
2022-12-09T01:00:13.308Z,98927.31
2022-12-09T01:01:15.659Z,98928.19
2022-12-09T01:02:18.466Z,98925.66
2022-12-09T01:03:23.390Z,98929.09
2022-12-09T01:04:27.564Z,98924.84
2022-12-09T01:05:30.575Z,98928.25
2022-12-09T01:06:32.180Z,98917.22
2022-12-09T01:07:33.957Z,98906.13
2022-12-09T01:08:38.956Z,98929.97
2022-12-09T01:09:41.376Z,98926.59
2022-12-09T01:10:45.262Z,98931.69
2022-12-09T01:11:46.935Z,98921.50
2022-12-09T01:12:49.929Z,98918.88
2022-12-09T01:13:52.984Z,98927.41
2022-12-09T01:14:56.593Z,98908.69
2022-12-09T01:15:59.079Z,98919.81
2022-12-09T01:17:01.063Z,98914.72
2022-12-09T01:18:03.815Z,98924.09
2022-12-09T01:19:08.380Z,98915.53
2022-12-09T01:20:12.591Z,98929.16
2022-12-09T01:21:16.222Z,98904.44
2022-12-09T01:22:18.066Z,98907.84
2022-12-09T01:23:20.076Z,98919.72
2022-12-09T01:24:22.675Z,98925.66
2022-12-09T01:25:25.267Z,98919.72
2022-12-09T01:26:28.095Z,98919.75
2022-12-09T01:27:30.803Z,98926.53
2022-12-09T01:28:35.314Z,98909.56
2022-12-09T01:29:37.237Z,98916.34
2022-12-09T01:30:41.236Z,98930.81
2022-12-09T01:31:48.233Z,98917.13
2022-12-09T01:32:50.194Z,98929.13
2022-12-09T01:33:54.163Z,98915.47
2022-12-09T01:34:56.101Z,98917.25
2022-12-09T01:35:58.029Z,98918.94
2022-12-09T01:37:00.886Z,98930.09
2022-12-09T01:38:02.694Z,98930.94
2022-12-09T01:39:04.889Z,98930.97
2022-12-09T01:40:10.884Z,98929.28
2022-12-09T01:41:14.465Z,98914.78
2022-12-09T01:42:21.631Z,98918.19
2022-12-09T01:43:24.578Z,98903.72
2022-12-09T01:44:27.904Z,98913.94
2022-12-09T01:45:32.839Z,98914.75
2022-12-09T01:46:35.538Z,98906.25
2022-12-09T01:47:37.742Z,98901.97
2022-12-09T01:48:43.588Z,98909.66
2022-12-09T01:49:48.444Z,98902.00
2022-12-09T01:51:03.398Z,98899.44
2022-12-09T01:52:12.535Z,98899.44
2022-12-09T01:53:16.763Z,98898.63
2022-12-09T01:54:18.760Z,98900.25
2022-12-09T01:55:20.883Z,98880.63
2022-12-09T01:56:27.195Z,98895.09
2022-12-09T01:57:29.614Z,98889.13
2022-12-09T01:58:33.294Z,98896.84
2022-12-09T01:59:35.379Z,98890.88
2022-12-09T02:00:38.657Z,98882.34
2022-12-09T02:01:43.260Z,98867.91
2022-12-09T02:02:48.896Z,98874.72
2022-12-09T02:03:51.162Z,98878.97
2022-12-09T02:04:54.281Z,98876.38
2022-12-09T02:05:56.800Z,98876.41
2022-12-09T02:07:02.624Z,98876.44
2022-12-09T02:08:13.259Z,98860.31
2022-12-09T02:09:15.354Z,98873.94
2022-12-09T02:10:18.692Z,98868.84
2022-12-09T02:12:13.117Z,98873.13
2022-12-09T02:13:34.435Z,98864.56
2022-12-09T02:14:59.012Z,98851.78
2022-12-09T02:16:08.426Z,98853.47
2022-12-09T02:17:33.834Z,98856.91
2022-12-09T02:18:47.120Z,98854.38
2022-12-09T02:20:24.268Z,98855.19
2022-12-09T02:21:34.682Z,98852.66
2022-12-09T02:22:46.501Z,98843.25
2022-12-09T02:23:53.737Z,98851.69
2022-12-09T02:25:03.475Z,98857.66
2022-12-09T02:26:26.719Z,98859.38
2022-12-09T02:27:51.099Z,98848.31
2022-12-09T02:29:11.958Z,98857.63
2022-12-09T02:30:23.374Z,98860.19
2022-12-09T02:31:39.572Z,98857.63
2022-12-09T02:33:03.573Z,98859.31
2022-12-09T02:34:11.193Z,98852.53
2022-12-09T02:35:37.727Z,98850.81
2022-12-09T02:36:49.382Z,98840.53
2022-12-09T02:38:02.837Z,98836.28
2022-12-09T02:39:07.007Z,98831.22
2022-12-09T02:40:29.681Z,98827.03
2022-12-09T02:41:35.433Z,98819.31
2022-12-09T02:42:39.367Z,98809.03
2022-12-09T02:43:50.289Z,98834.47
2022-12-09T02:44:53.289Z,98829.34
2022-12-09T02:46:02.227Z,98834.50
2022-12-09T02:47:07.292Z,98831.91
2022-12-09T02:48:12.966Z,98830.22
2022-12-09T02:49:15.890Z,98817.47
2022-12-09T02:50:22.344Z,98845.53
2022-12-09T02:51:28.593Z,98822.44
2022-12-09T02:52:32.239Z,98830.94
2022-12-09T02:53:36.463Z,98824.97
2022-12-09T02:54:39.682Z,98829.28
2022-12-09T02:55:47.167Z,98818.22
2022-12-09T02:56:57.104Z,98824.16
2022-12-09T02:58:02.336Z,98813.94
2022-12-09T02:59:03.960Z,98808.88
2022-12-09T03:00:09.204Z,98815.69
2022-12-09T03:01:27.311Z,98808.91
2022-12-09T03:02:38.156Z,98816.59
2022-12-09T03:03:40.451Z,98815.75
2022-12-09T03:04:50.589Z,98811.50
2022-12-09T03:06:07.386Z,98814.97
2022-12-09T03:07:35.369Z,98803.84
2022-12-09T03:08:43.959Z,98813.22
2022-12-09T03:09:52.919Z,98809.81
2022-12-09T03:11:02.256Z,98802.19
2022-12-09T03:12:09.132Z,98816.66
2022-12-09T03:13:24.842Z,98804.75
2022-12-09T03:14:36.653Z,98801.38
2022-12-09T03:15:45.472Z,98794.66
2022-12-09T03:17:09.562Z,98794.69
2022-12-09T03:18:16.210Z,98798.91
2022-12-09T03:19:41.030Z,98783.59
2022-12-09T03:20:46.300Z,98779.41
2022-12-09T03:21:50.066Z,98786.97
2022-12-09T03:22:56.676Z,98791.25
2022-12-09T03:23:59.928Z,98786.13
2022-12-09T03:25:20.232Z,98800.66
2022-12-09T03:26:27.481Z,98793.81
2022-12-09T03:27:37.132Z,98783.56
2022-12-09T03:28:44.447Z,98785.31
2022-12-09T03:29:49.428Z,98781.94
2022-12-09T03:30:55.455Z,98760.66
2022-12-09T03:31:59.743Z,98770.03
2022-12-09T03:33:04.436Z,98783.63
2022-12-09T03:34:10.246Z,98786.16
2022-12-09T03:35:19.433Z,98769.97
2022-12-09T03:36:23.751Z,98775.09
2022-12-09T03:37:27.568Z,98786.13
2022-12-09T03:38:37.293Z,98775.94
2022-12-09T03:39:40.805Z,98798.09
2022-12-09T03:40:45.224Z,98777.66
2022-12-09T03:41:55.670Z,98776.78
2022-12-09T03:43:03.288Z,98778.50
2022-12-09T03:44:12.639Z,98781.09
2022-12-09T03:45:19.596Z,98771.75
2022-12-09T03:46:22.946Z,98777.69
2022-12-09T03:47:24.985Z,98781.94
2022-12-09T03:48:28.531Z,98785.34
2022-12-09T03:49:30.625Z,98765.78
2022-12-09T03:50:47.928Z,98773.41
2022-12-09T03:52:05.154Z,98781.03
2022-12-09T03:53:13.023Z,98771.69
2022-12-09T03:54:45.548Z,98775.06
2022-12-09T03:56:22.351Z,98773.34
2022-12-09T03:57:25.054Z,98775.91
2022-12-09T03:58:31.576Z,98775.94
2022-12-09T03:59:35.996Z,98775.91
2022-12-09T04:00:39.452Z,98785.25
2022-12-09T04:01:46.164Z,98780.13
2022-12-09T04:02:48.474Z,98769.09
2022-12-09T04:03:55.311Z,98769.09
2022-12-09T04:04:57.641Z,98785.28
2022-12-09T04:05:59.881Z,98770.81
2022-12-09T04:07:04.003Z,98774.19
2022-12-09T04:08:07.298Z,98776.78
2022-12-09T04:09:12.145Z,98770.78
2022-12-09T04:10:14.355Z,98775.94
2022-12-09T04:11:17.774Z,98776.84
2022-12-09T04:12:19.529Z,98761.50
2022-12-09T04:13:21.123Z,98752.13
2022-12-09T04:14:23.066Z,98769.97
2022-12-09T04:15:27.503Z,98763.13
2022-12-09T04:16:31.265Z,98759.72
2022-12-09T04:17:33.634Z,98727.47
2022-12-09T04:18:35.991Z,98747.81
2022-12-09T04:19:38.256Z,98749.47
2022-12-09T04:20:41.967Z,98735.06
2022-12-09T04:21:44.826Z,98745.25
2022-12-09T04:22:48.015Z,98740.13
2022-12-09T04:23:51.587Z,98741.81
2022-12-09T04:24:54.204Z,98733.28
2022-12-09T04:25:56.022Z,98736.66
2022-12-09T04:26:58.882Z,98746.88
2022-12-09T04:28:01.162Z,98730.72
2022-12-09T04:29:03.191Z,98737.53
2022-12-09T04:30:06.619Z,98728.16
2022-12-09T04:31:17.461Z,98722.22
2022-12-09T04:32:19.591Z,98729.88
2022-12-09T04:33:24.092Z,98740.09
2022-12-09T04:34:26.445Z,98722.16
2022-12-09T04:35:29.416Z,98722.16
2022-12-09T04:36:32.982Z,98717.03
2022-12-09T04:37:34.931Z,98718.72
2022-12-09T04:38:38.053Z,98694.09
2022-12-09T04:39:41.925Z,98706.78
2022-12-09T04:40:43.703Z,98711.03
2022-12-09T04:41:46.436Z,98705.03
2022-12-09T04:42:48.194Z,98688.91
2022-12-09T04:43:49.920Z,98690.66
2022-12-09T04:44:53.160Z,98715.38
2022-12-09T04:45:55.215Z,98694.91
2022-12-09T04:46:57.073Z,98705.09
2022-12-09T04:47:59.574Z,98700.84
2022-12-09T04:49:01.846Z,98706.00
2022-12-09T04:50:05.204Z,98700.88
2022-12-09T04:51:09.742Z,98706.84
2022-12-09T04:52:13.819Z,98695.78
2022-12-09T04:53:16.343Z,98698.28
2022-12-09T04:54:21.321Z,98696.69
2022-12-09T04:55:23.182Z,98691.53
2022-12-09T04:56:25.590Z,98694.09
2022-12-09T04:57:27.810Z,98690.69
2022-12-09T04:58:34.342Z,98699.16
2022-12-09T04:59:36.272Z,98688.09
2022-12-09T05:00:38.291Z,98682.16
2022-12-09T05:01:40.994Z,98679.59
2022-12-09T05:02:43.661Z,98677.13
2022-12-09T05:03:51.085Z,98696.66
2022-12-09T05:04:53.273Z,98669.41
2022-12-09T05:05:55.789Z,98682.94
2022-12-09T05:06:57.930Z,98676.97
2022-12-09T05:08:00.320Z,98679.53
2022-12-09T05:09:02.778Z,98682.06
2022-12-09T05:10:07.125Z,98681.22
2022-12-09T05:11:10.101Z,98680.34
2022-12-09T05:12:12.625Z,98687.19
2022-12-09T05:13:15.662Z,98676.13
2022-12-09T05:14:18.071Z,98676.03
2022-12-09T05:15:20.742Z,98679.47
2022-12-09T05:16:23.253Z,98682.88
2022-12-09T05:17:25.490Z,98676.94
2022-12-09T05:18:28.989Z,98677.75
2022-12-09T05:19:32.804Z,98674.28
2022-12-09T05:20:34.897Z,98668.34
2022-12-09T05:21:37.445Z,98681.91
2022-12-09T05:22:39.055Z,98666.63
2022-12-09T05:23:41.732Z,98659.81
2022-12-09T05:24:44.518Z,98675.09
2022-12-09T05:25:46.540Z,98671.69
2022-12-09T05:26:49.577Z,98666.63
2022-12-09T05:27:54.092Z,98671.69
2022-12-09T05:28:56.101Z,98672.56
2022-12-09T05:29:58.300Z,98669.16
2022-12-09T05:31:15.833Z,98675.16
2022-12-09T05:32:20.741Z,98670.13
2022-12-09T05:33:25.976Z,98670.06
2022-12-09T05:34:28.326Z,98672.59
2022-12-09T05:35:32.151Z,98676.00
2022-12-09T05:36:34.800Z,98669.28
2022-12-09T05:37:36.820Z,98661.59
2022-12-09T05:38:39.753Z,98659.88
2022-12-09T05:39:42.429Z,98676.03
2022-12-09T05:40:44.878Z,98676.03
2022-12-09T05:41:47.434Z,98667.59
2022-12-09T05:42:50.184Z,98663.25
2022-12-09T05:43:52.641Z,98669.25
2022-12-09T05:44:57.140Z,98654.84
2022-12-09T05:46:03.086Z,98682.97
2022-12-09T05:47:05.967Z,98660.81
2022-12-09T05:48:09.330Z,98660.88
2022-12-09T05:49:11.881Z,98675.28
2022-12-09T05:50:15.100Z,98653.19
2022-12-09T05:51:23.106Z,98646.41
2022-12-09T05:52:26.738Z,98639.66
2022-12-09T05:53:29.289Z,98658.25
2022-12-09T05:54:33.928Z,98647.19
2022-12-09T05:55:42.111Z,98654.00
2022-12-09T05:56:48.038Z,98641.31
2022-12-09T05:57:50.527Z,98643.00
2022-12-09T05:58:53.508Z,98656.59
2022-12-09T05:59:57.955Z,98639.63
2022-12-09T06:01:08.164Z,98624.34
2022-12-09T06:02:11.023Z,98677.91
2022-12-09T06:03:14.552Z,98620.06
2022-12-09T06:04:17.883Z,98633.63
2022-12-09T06:05:20.212Z,98655.72
2022-12-09T06:06:34.236Z,98626.88
2022-12-09T06:07:36.684Z,98649.78
2022-12-09T06:08:41.154Z,98620.94
2022-12-09T06:09:45.932Z,98654.06
2022-12-09T06:10:48.812Z,98651.53
2022-12-09T06:11:50.842Z,98620.13
2022-12-09T06:13:03.714Z,98627.75
2022-12-09T06:14:08.927Z,98658.31
2022-12-09T06:15:14.461Z,98652.34
2022-12-09T06:16:22.436Z,98606.53
2022-12-09T06:17:24.851Z,98575.97
2022-12-09T06:18:28.242Z,98653.97
2022-12-09T06:19:32.093Z,98640.41
2022-12-09T06:20:35.496Z,98642.91
2022-12-09T06:21:39.754Z,98653.97
2022-12-09T06:22:41.880Z,98652.38
2022-12-09T06:23:48.296Z,98659.19
2022-12-09T06:24:55.594Z,98652.31
2022-12-09T06:25:59.544Z,98625.16
2022-12-09T06:27:04.656Z,98644.66
2022-12-09T06:28:08.675Z,98654.00
2022-12-09T06:29:10.561Z,98645.47
2022-12-09T06:30:13.707Z,98649.72
2022-12-09T06:31:15.732Z,98637.84
2022-12-09T06:32:20.315Z,98636.19
2022-12-09T06:33:53.005Z,98651.50
2022-12-09T06:34:44.917Z,98570.00
2022-12-09T06:35:50.796Z,98624.31
2022-12-09T06:36:53.161Z,98637.16
2022-12-09T06:37:57.699Z,98641.31
2022-12-09T06:39:10.127Z,98652.38
2022-12-09T06:40:15.119Z,98671.09
2022-12-09T06:41:17.826Z,98671.09
2022-12-09T06:42:20.134Z,98604.88
2022-12-09T06:43:22.375Z,98665.16
2022-12-09T06:44:25.237Z,98631.97
2022-12-09T06:45:34.333Z,98649.78
2022-12-09T06:46:37.963Z,98634.53
2022-12-09T06:47:42.988Z,98659.22
2022-12-09T06:48:47.075Z,98645.50
2022-12-09T06:49:50.944Z,98623.53
2022-12-09T06:50:55.020Z,98636.19
2022-12-09T06:51:58.269Z,98603.97
2022-12-09T06:53:04.296Z,98651.53
2022-12-09T06:54:07.814Z,98653.19
2022-12-09T06:55:11.784Z,98633.69
2022-12-09T06:56:16.392Z,98634.50
2022-12-09T06:57:17.941Z,98620.06
2022-12-09T06:58:19.859Z,98616.69
2022-12-09T06:59:25.652Z,98604.13
2022-12-09T07:00:28.463Z,98649.06
2022-12-09T07:01:30.791Z,98615.13
2022-12-09T07:02:36.975Z,98626.03
2022-12-09T07:03:44.290Z,98655.78
2022-12-09T07:04:47.866Z,98619.22
2022-12-09T07:05:50.862Z,98637.00
2022-12-09T07:06:58.427Z,98648.94
2022-12-09T07:08:01.335Z,98577.66
2022-12-09T07:09:11.304Z,98577.63
2022-12-09T07:10:13.872Z,98564.03
2022-12-09T07:11:16.775Z,98630.22
2022-12-09T07:12:19.647Z,98628.50
2022-12-09T07:13:22.326Z,98621.75
2022-12-09T07:14:24.155Z,98634.47
2022-12-09T07:15:26.504Z,98622.59
2022-12-09T07:16:29.341Z,98649.78
2022-12-09T07:17:31.861Z,98625.91
2022-12-09T07:18:34.416Z,98586.03
2022-12-09T07:19:36.551Z,98630.09
2022-12-09T07:20:41.171Z,98590.16
2022-12-09T07:21:43.723Z,98608.81
2022-12-09T07:22:46.586Z,98628.50
2022-12-09T07:23:49.887Z,98632.66
2022-12-09T07:24:52.849Z,98658.13
2022-12-09T07:26:02.361Z,98635.16
2022-12-09T07:27:18.621Z,98620.75
2022-12-09T07:28:23.339Z,98647.06
2022-12-09T07:29:28.241Z,98613.91
2022-12-09T07:30:40.259Z,98621.56
2022-12-09T07:31:42.947Z,98641.03
2022-12-09T07:32:45.176Z,98629.19
2022-12-09T07:33:47.778Z,98639.28
2022-12-09T07:34:52.682Z,98614.69
2022-12-09T07:36:01.093Z,98587.56
2022-12-09T07:37:03.960Z,98637.53
2022-12-09T07:38:06.161Z,98633.31
2022-12-09T07:39:12.723Z,98640.88
2022-12-09T07:40:15.550Z,98648.53
2022-12-09T07:41:18.803Z,98633.16
2022-12-09T07:42:21.075Z,98633.16
2022-12-09T07:43:23.104Z,98628.81
2022-12-09T07:44:28.162Z,98641.56
2022-12-09T07:45:34.241Z,98643.25
2022-12-09T07:46:36.462Z,98625.47
2022-12-09T07:47:38.517Z,98641.56
2022-12-09T07:48:41.747Z,98639.81
2022-12-09T07:49:44.590Z,98637.28
2022-12-09T07:50:47.400Z,98638.00
2022-12-09T07:51:52.275Z,98654.22
2022-12-09T07:52:54.890Z,98635.31
2022-12-09T07:53:57.164Z,98654.03
2022-12-09T07:55:01.535Z,98649.69
2022-12-09T07:56:15.044Z,98607.13
2022-12-09T07:57:17.094Z,98659.75
2022-12-09T07:58:18.749Z,98601.94
2022-12-09T07:59:20.603Z,98588.22
2022-12-09T08:00:25.837Z,98615.19
2022-12-09T08:01:30.211Z,98641.28
2022-12-09T08:02:33.636Z,98615.50
2022-12-09T08:03:36.049Z,98630.59
2022-12-09T08:04:38.744Z,98654.38
2022-12-09T08:05:49.053Z,98644.81
2022-12-09T08:06:51.092Z,98633.63
2022-12-09T08:07:54.877Z,98644.63
2022-12-09T08:09:04.209Z,98629.53
2022-12-09T08:10:09.300Z,98638.66
2022-12-09T08:11:14.620Z,98649.78
2022-12-09T08:12:20.190Z,98632.88
2022-12-09T08:13:22.334Z,98604.13
2022-12-09T08:14:25.823Z,98632.06
2022-12-09T08:15:27.986Z,98646.34
2022-12-09T08:16:29.972Z,98645.25
2022-12-09T08:17:33.545Z,98645.91
2022-12-09T08:18:36.640Z,98640.84
2022-12-09T08:19:39.656Z,98641.84
2022-12-09T08:20:41.933Z,98633.19
2022-12-09T08:21:45.549Z,98627.13
2022-12-09T08:22:52.564Z,98621.88
2022-12-09T08:24:01.493Z,98635.31
2022-12-09T08:25:04.712Z,98580.06
2022-12-09T08:26:07.637Z,98627.22
2022-12-09T08:27:14.206Z,98631.56
2022-12-09T08:28:19.440Z,98615.47
2022-12-09T08:29:21.528Z,98617.09
2022-12-09T08:30:26.615Z,98607.66
2022-12-09T08:31:30.936Z,98636.19
2022-12-09T08:32:36.529Z,98635.09
2022-12-09T08:33:39.838Z,98613.81
2022-12-09T08:34:43.513Z,98563.81
2022-12-09T08:35:45.213Z,98615.50
2022-12-09T08:36:47.703Z,98610.16
2022-12-09T08:37:49.793Z,98622.56
2022-12-09T08:38:58.804Z,98619.13
2022-12-09T08:40:01.540Z,98606.19
2022-12-09T08:41:35.802Z,98617.97
2022-12-09T08:42:38.613Z,98580.47
2022-12-09T08:43:44.282Z,98599.72
2022-12-09T08:44:47.235Z,98618.28
2022-12-09T08:45:49.323Z,98563.63
2022-12-09T08:46:52.915Z,98608.06
2022-12-09T08:47:58.784Z,98554.16
2022-12-09T08:49:04.370Z,98599.78
2022-12-09T08:50:08.710Z,98605.50
2022-12-09T08:51:12.513Z,98578.00
2022-12-09T08:52:14.931Z,98541.34
2022-12-09T08:53:17.219Z,98620.81
2022-12-09T08:54:21.598Z,98622.13
2022-12-09T08:55:27.988Z,98598.19
2022-12-09T08:56:32.059Z,98608.50
2022-12-09T08:57:36.112Z,98607.19
2022-12-09T08:58:38.318Z,98615.38
2022-12-09T08:59:45.024Z,98589.75
2022-12-09T09:00:49.114Z,98573.06
2022-12-09T09:01:51.924Z,98589.00
2022-12-09T09:02:55.593Z,98604.50
2022-12-09T09:03:59.453Z,98627.81
2022-12-09T09:05:01.705Z,98605.69
2022-12-09T09:06:10.408Z,98596.28
2022-12-09T09:07:14.875Z,98604.84
2022-12-09T09:08:22.058Z,98607.28
2022-12-09T09:09:24.419Z,98565.03
2022-12-09T09:10:29.753Z,98551.38
2022-12-09T09:11:32.504Z,98596.03
2022-12-09T09:12:42.124Z,98590.06
2022-12-09T09:13:51.795Z,98594.81
2022-12-09T09:14:54.944Z,98595.59
2022-12-09T09:15:59.349Z,98598.38
2022-12-09T09:17:01.263Z,98584.63
2022-12-09T09:18:04.052Z,98589.63
2022-12-09T09:19:08.772Z,98592.84
2022-12-09T09:20:11.475Z,98589.19
2022-12-09T09:21:15.404Z,98574.13
2022-12-09T09:22:17.691Z,98599.53
2022-12-09T09:23:19.669Z,98572.09
2022-12-09T09:24:27.697Z,98578.50
2022-12-09T09:25:30.598Z,98583.03
2022-12-09T09:26:32.978Z,98561.94
2022-12-09T09:27:36.668Z,98585.44
2022-12-09T09:28:39.295Z,98549.75
2022-12-09T09:29:41.757Z,98509.81
2022-12-09T09:30:43.902Z,98561.53
2022-12-09T09:31:57.521Z,98532.88
2022-12-09T09:33:00.035Z,98561.56
2022-12-09T09:34:02.902Z,98542.00
2022-12-09T09:35:09.502Z,98569.69
2022-12-09T09:36:18.915Z,98577.44
2022-12-09T09:37:23.822Z,98537.81
2022-12-09T09:38:28.879Z,98606.19
2022-12-09T09:39:30.727Z,98552.16
2022-12-09T09:40:33.892Z,98592.75
2022-12-09T09:41:51.087Z,98578.78
2022-12-09T09:42:56.921Z,98561.88
2022-12-09T09:44:02.331Z,98568.47
2022-12-09T09:45:12.607Z,98568.38
2022-12-09T09:46:31.801Z,98566.78
2022-12-09T09:47:43.345Z,98576.16
2022-12-09T09:48:48.605Z,98574.59
2022-12-09T09:49:58.116Z,98526.63
2022-12-09T09:51:13.786Z,98567.00
2022-12-09T09:52:21.267Z,98566.72
2022-12-09T09:53:32.886Z,98578.44
2022-12-09T09:54:35.646Z,98538.63
2022-12-09T09:55:52.591Z,98552.75
2022-12-09T09:57:01.582Z,98569.72
2022-12-09T09:58:23.114Z,98540.44
2022-12-09T10:00:26.987Z,98577.66
2022-12-09T10:01:39.604Z,98543.44
2022-12-09T10:02:52.520Z,98505.13
2022-12-09T10:04:22.915Z,98567.84
2022-12-09T10:05:43.791Z,98568.56
2022-12-09T10:06:45.925Z,98564.78
2022-12-09T10:08:28.027Z,98590.72
2022-12-09T10:09:39.363Z,98557.81
2022-12-09T10:10:58.596Z,98557.53
2022-12-09T10:12:22.872Z,98535.03
2022-12-09T10:13:45.233Z,98553.72
2022-12-09T10:15:28.597Z,98560.13
2022-12-09T10:16:42.602Z,98551.84
2022-12-09T10:17:56.145Z,98554.56
2022-12-09T10:19:19.771Z,98548.34
2022-12-09T10:20:29.569Z,98515.13
2022-12-09T10:21:33.461Z,98551.19
2022-12-09T10:22:47.367Z,98542.97
2022-12-09T10:23:50.748Z,98567.94
2022-12-09T10:24:58.289Z,98543.69
2022-12-09T10:26:05.048Z,98529.09
2022-12-09T10:27:26.496Z,98525.78
2022-12-09T10:28:36.490Z,98500.91
2022-12-09T10:29:55.911Z,98546.00
2022-12-09T10:30:58.189Z,98561.06
2022-12-09T10:32:00.917Z,98542.13
2022-12-09T10:33:08.016Z,98536.72
2022-12-09T10:34:18.832Z,98544.59
2022-12-09T10:35:28.801Z,98527.41
2022-12-09T10:36:35.704Z,98535.81
2022-12-09T10:37:39.613Z,98526.28
2022-12-09T10:38:44.065Z,98485.19
2022-12-09T10:39:49.113Z,98467.50
2022-12-09T10:41:03.705Z,98483.63
2022-12-09T10:42:34.604Z,98499.88
2022-12-09T10:43:41.954Z,98517.84
2022-12-09T10:44:43.905Z,98523.53
2022-12-09T10:46:17.213Z,98525.00
2022-12-09T10:47:29.490Z,98494.31
2022-12-09T10:48:53.461Z,98523.47
2022-12-09T10:49:58.444Z,98502.75
2022-12-09T10:51:05.055Z,98514.91
2022-12-09T10:52:07.841Z,98480.03
2022-12-09T10:53:15.059Z,98518.16
2022-12-09T10:54:25.060Z,98512.75
2022-12-09T10:55:52.071Z,98513.19
2022-12-09T10:57:12.678Z,98507.16
2022-12-09T10:58:19.738Z,98517.53
2022-12-09T10:59:28.596Z,98519.25
2022-12-09T11:00:34.805Z,98513.63
2022-12-09T11:02:02.031Z,98510.63
2022-12-09T11:03:05.633Z,98508.31
2022-12-09T11:04:15.126Z,98507.47
2022-12-09T11:05:24.693Z,98512.84
2022-12-09T11:07:50.606Z,98503.69
2022-12-09T11:08:56.795Z,98506.22
2022-12-09T11:09:58.946Z,98510.44
2022-12-09T11:11:01.952Z,98508.03
2022-12-09T11:12:06.743Z,98502.50
2022-12-09T11:13:15.981Z,98502.50
2022-12-09T11:14:23.292Z,98508.28
2022-12-09T11:15:36.036Z,98500.34
2022-12-09T11:16:38.522Z,98502.94
2022-12-09T11:17:56.067Z,98501.66
2022-12-09T11:18:58.787Z,98501.75
2022-12-09T11:20:07.978Z,98502.72
2022-12-09T11:21:30.069Z,98496.06
2022-12-09T11:22:39.656Z,98492.53
2022-12-09T11:23:58.811Z,98491.06
2022-12-09T11:25:27.436Z,98491.00
2022-12-09T11:26:36.669Z,98493.66
2022-12-09T11:27:57.049Z,98501.09
2022-12-09T11:29:22.171Z,98490.09
2022-12-09T11:30:26.862Z,98492.09
2022-12-09T11:31:34.132Z,98480.34
2022-12-09T11:32:55.742Z,98469.97
2022-12-09T11:34:37.829Z,98492.78
2022-12-09T11:35:46.046Z,98481.66
2022-12-09T11:36:58.124Z,98489.38
2022-12-09T11:38:12.955Z,98484.19
2022-12-09T11:39:19.590Z,98473.59
2022-12-09T11:40:23.876Z,98480.94
2022-12-09T11:41:45.751Z,98481.69
2022-12-09T11:42:52.784Z,98484.75
2022-12-09T11:43:56.872Z,98480.53
2022-12-09T11:45:06.696Z,98490.19
2022-12-09T11:46:22.229Z,98488.16
2022-12-09T11:47:57.167Z,98478.84
2022-12-09T11:48:57.613Z,98469.16
2022-12-09T11:50:21.226Z,98475.56
2022-12-09T11:51:33.397Z,98483.97
2022-12-09T11:52:35.275Z,98475.13
2022-12-09T11:53:41.373Z,98480.19
2022-12-09T11:55:10.832Z,98466.38
2022-12-09T11:56:18.166Z,98484.44
2022-12-09T11:57:44.277Z,98464.69
2022-12-09T11:58:55.932Z,98473.00
2022-12-09T12:00:02.304Z,98470.06
2022-12-09T12:01:26.917Z,98473.19
2022-12-09T12:02:54.783Z,98470.78
2022-12-09T12:04:01.728Z,98476.78
2022-12-09T12:05:21.611Z,98472.06
2022-12-09T12:06:41.496Z,98474.53
2022-12-09T12:07:59.587Z,98477.16
2022-12-09T12:09:08.059Z,98474.66
2022-12-09T12:10:19.510Z,98475.88
2022-12-09T12:11:27.911Z,98470.03
2022-12-09T12:12:48.158Z,98469.50
2022-12-09T12:13:54.350Z,98468.72
2022-12-09T12:15:01.937Z,98468.09
2022-12-09T12:16:39.725Z,98470.59
2022-12-09T12:17:45.031Z,98464.56
2022-12-09T12:19:13.935Z,98455.91
2022-12-09T12:20:16.327Z,98460.66
2022-12-09T12:21:40.070Z,98472.63
2022-12-09T12:23:05.752Z,98469.75
2022-12-09T12:24:41.505Z,98469.63
2022-12-09T12:25:48.946Z,98469.03
2022-12-09T12:27:05.911Z,98466.34
2022-12-09T12:28:23.583Z,98474.50
2022-12-09T12:29:40.844Z,98472.22
2022-12-09T12:30:54.003Z,98484.34
2022-12-09T12:32:24.684Z,98474.16
2022-12-09T12:34:00.852Z,98470.19
2022-12-09T12:35:21.515Z,98466.94
2022-12-09T12:36:49.202Z,98470.63
2022-12-09T12:38:10.702Z,98475.81
2022-12-09T12:39:33.004Z,98468.06
2022-12-09T12:40:55.082Z,98466.31
2022-12-09T12:42:29.072Z,98469.81
2022-12-09T12:44:03.633Z,98457.53
2022-12-09T12:45:42.517Z,98466.66
2022-12-09T12:47:16.683Z,98468.88
2022-12-09T12:48:30.368Z,98433.44
2022-12-09T12:49:38.994Z,98463.59
2022-12-09T12:50:56.271Z,98460.16
2022-12-09T12:54:23.862Z,98462.25
2022-12-09T12:55:44.499Z,98465.09
2022-12-09T12:56:49.141Z,98468.72
2022-12-09T12:57:59.991Z,98472.19
2022-12-09T12:59:23.885Z,98471.31
2022-12-09T13:00:33.321Z,98466.22
2022-12-09T13:02:02.510Z,98468.72
2022-12-09T13:03:27.149Z,98467.84
2022-12-09T13:04:40.122Z,98466.06
2022-12-09T13:05:44.750Z,98466.78
2022-12-09T13:07:11.825Z,98467.00
2022-12-09T13:08:46.374Z,98464.81
2022-12-09T13:09:55.557Z,98469.03
2022-12-09T13:11:04.801Z,98475.88
2022-12-09T13:12:14.130Z,98476.63
2022-12-09T13:13:38.672Z,98470.50
2022-12-09T13:14:52.896Z,98472.97
2022-12-09T13:16:00.199Z,98466.72
2022-12-09T13:17:07.788Z,98467.50